createdAt,value
2023-03-05T00:00:30.498Z,606.00
2023-03-05T00:01:30.480Z,605.00
2023-03-05T00:02:30.544Z,606.00
2023-03-05T00:03:30.536Z,605.00
2023-03-05T00:04:30.448Z,605.00
2023-03-05T00:05:30.476Z,605.00
2023-03-05T00:06:30.435Z,605.00
2023-03-05T00:07:30.403Z,603.00
2023-03-05T00:08:30.409Z,600.00
2023-03-05T00:09:30.398Z,598.00
2023-03-05T00:10:30.411Z,600.00
2023-03-05T00:11:30.518Z,600.00
2023-03-05T00:12:30.348Z,603.00
2023-03-05T00:13:30.359Z,605.00
2023-03-05T00:14:30.340Z,605.00
2023-03-05T00:15:30.343Z,605.00
2023-03-05T00:16:30.334Z,605.00
2023-03-05T00:17:30.313Z,604.00
2023-03-05T00:18:30.308Z,603.00
2023-03-05T00:19:30.295Z,604.00
2023-03-05T00:20:30.272Z,603.00
2023-03-05T00:21:30.318Z,601.00
2023-03-05T00:22:30.261Z,601.00
2023-03-05T00:23:30.241Z,600.00
2023-03-05T00:24:30.249Z,600.00
2023-03-05T00:25:30.216Z,599.00
2023-03-05T00:26:30.235Z,601.00
2023-03-05T00:27:30.193Z,603.00
2023-03-05T00:28:30.181Z,602.00
2023-03-05T00:29:31.753Z,602.00
2023-03-05T00:30:30.166Z,602.00
2023-03-05T00:31:30.436Z,603.00
2023-03-05T00:32:30.153Z,602.00
2023-03-05T00:33:30.139Z,604.00
2023-03-05T00:34:30.120Z,602.00
2023-03-05T00:35:30.166Z,603.00
2023-03-05T00:36:30.129Z,604.00
2023-03-05T00:37:30.122Z,602.00
2023-03-05T00:38:30.091Z,601.00
2023-03-05T00:39:30.083Z,600.00
2023-03-05T00:40:30.107Z,604.00
2023-03-05T00:41:30.075Z,603.00
2023-03-05T00:42:30.033Z,601.00
2023-03-05T00:43:30.022Z,605.00
2023-03-05T00:44:30.052Z,605.00
2023-03-05T00:45:30.016Z,608.00
2023-03-05T00:46:30.020Z,609.00
2023-03-05T00:47:29.988Z,611.00
2023-03-05T00:48:29.972Z,610.00
2023-03-05T00:49:29.970Z,611.00
2023-03-05T00:50:29.994Z,611.00
2023-03-05T00:51:29.944Z,612.00
2023-03-05T00:52:29.931Z,612.00
2023-03-05T00:53:29.923Z,611.00
2023-03-05T00:54:29.905Z,611.00
2023-03-05T00:55:29.889Z,609.00
2023-03-05T00:56:29.910Z,609.00
2023-03-05T00:57:29.880Z,610.00
2023-03-05T00:58:29.925Z,610.00
2023-03-05T00:59:29.859Z,607.00
2023-03-05T01:00:29.987Z,605.00
2023-03-05T01:01:29.897Z,604.00
2023-03-05T01:02:29.872Z,604.00
2023-03-05T01:03:29.799Z,603.00
2023-03-05T01:04:29.827Z,603.00
2023-03-05T01:05:29.849Z,602.00
2023-03-05T01:06:29.789Z,601.00
2023-03-05T01:07:29.812Z,601.00
2023-03-05T01:08:29.765Z,603.00
2023-03-05T01:09:29.741Z,602.00
2023-03-05T01:10:29.727Z,602.00
2023-03-05T01:11:29.729Z,605.00
2023-03-05T01:12:29.719Z,604.00
2023-03-05T01:13:29.699Z,602.00
2023-03-05T01:14:29.668Z,601.00
2023-03-05T01:15:29.681Z,601.00
2023-03-05T01:16:29.766Z,602.00
2023-03-05T01:17:29.647Z,604.00
2023-03-05T01:18:29.633Z,607.00
2023-03-05T01:19:29.616Z,606.00
2023-03-05T01:20:29.639Z,605.00
2023-03-05T01:21:29.606Z,605.00
2023-03-05T01:22:29.575Z,605.00
2023-03-05T01:23:29.577Z,604.00
2023-03-05T01:24:29.553Z,603.00
2023-03-05T01:25:29.567Z,604.00
2023-03-05T01:26:29.541Z,603.00
2023-03-05T01:27:29.537Z,604.00
2023-03-05T01:28:29.505Z,606.00
2023-03-05T01:29:29.505Z,608.00
2023-03-05T01:30:29.501Z,605.00
2023-03-05T01:31:29.559Z,602.00
2023-03-05T01:32:29.599Z,603.00
2023-03-05T01:33:29.472Z,603.00
2023-03-05T01:34:29.462Z,602.00
2023-03-05T01:35:29.443Z,601.00
2023-03-05T01:36:29.435Z,603.00
2023-03-05T01:37:29.415Z,604.00
2023-03-05T01:38:29.399Z,607.00
2023-03-05T01:39:29.386Z,606.00
2023-03-05T01:40:29.420Z,606.00
2023-03-05T01:41:29.385Z,606.00
2023-03-05T01:42:29.390Z,607.00
2023-03-05T01:43:29.379Z,607.00
2023-03-05T01:44:29.348Z,606.00
2023-03-05T01:45:29.344Z,607.00
2023-03-05T01:46:29.336Z,610.00
2023-03-05T01:47:29.302Z,608.00
2023-03-05T01:48:29.300Z,605.00
2023-03-05T01:49:29.295Z,604.00
2023-03-05T01:50:29.290Z,606.00
2023-03-05T01:51:29.304Z,605.00
2023-03-05T01:52:29.271Z,602.00
2023-03-05T01:53:29.262Z,604.00
2023-03-05T01:54:29.257Z,604.00
2023-03-05T01:55:29.228Z,603.00
2023-03-05T01:56:29.212Z,605.00
2023-03-05T01:57:29.221Z,605.00
2023-03-05T01:58:29.189Z,605.00
2023-03-05T01:59:29.184Z,606.00
2023-03-05T02:00:29.196Z,605.00
2023-03-05T02:01:29.205Z,605.00
2023-03-05T02:02:29.173Z,606.00
2023-03-05T02:03:29.188Z,606.00
2023-03-05T02:04:29.163Z,608.00
2023-03-05T02:05:29.137Z,610.00
2023-03-05T02:06:29.106Z,610.00
2023-03-05T02:07:29.110Z,610.00
2023-03-05T02:08:29.094Z,610.00
2023-03-05T02:09:29.077Z,613.00
2023-03-05T02:10:29.044Z,616.00
2023-03-05T02:11:29.050Z,616.00
2023-03-05T02:12:29.064Z,614.00
2023-03-05T02:13:29.044Z,613.00
2023-03-05T02:14:29.011Z,612.00
2023-03-05T02:15:29.020Z,610.00
2023-03-05T02:16:29.062Z,609.00
2023-03-05T02:17:29.018Z,606.00
2023-03-05T02:18:29.016Z,605.00
2023-03-05T02:19:28.979Z,604.00
2023-03-05T02:20:29.029Z,605.00
2023-03-05T02:21:28.941Z,607.00
2023-03-05T02:22:28.953Z,608.00
2023-03-05T02:23:28.994Z,607.00
2023-03-05T02:24:28.954Z,605.00
2023-03-05T02:25:28.914Z,605.00
2023-03-05T02:26:28.890Z,608.00
2023-03-05T02:27:28.894Z,610.00
2023-03-05T02:28:28.856Z,610.00
2023-03-05T02:29:28.872Z,609.00
2023-03-05T02:30:28.849Z,608.00
2023-03-05T02:31:28.875Z,609.00
2023-03-05T02:32:28.918Z,606.00
2023-03-05T02:33:28.814Z,604.00
2023-03-05T02:34:28.811Z,603.00
2023-03-05T02:35:28.859Z,603.00
2023-03-05T02:36:28.776Z,602.00
2023-03-05T02:37:28.794Z,602.00
2023-03-05T02:38:28.763Z,604.00
2023-03-05T02:39:28.757Z,606.00
2023-03-05T02:40:28.738Z,603.00
2023-03-05T02:41:28.743Z,602.00
2023-03-05T02:42:28.745Z,606.00
2023-03-05T02:43:28.700Z,605.00
2023-03-05T02:44:28.696Z,603.00
2023-03-05T02:45:28.702Z,605.00
2023-03-05T02:46:28.668Z,605.00
2023-03-05T02:47:28.681Z,605.00
2023-03-05T02:48:28.665Z,605.00
2023-03-05T02:49:28.641Z,603.00
2023-03-05T02:50:28.640Z,604.00
2023-03-05T02:51:28.619Z,602.00
2023-03-05T02:52:28.605Z,602.00
2023-03-05T02:53:28.606Z,605.00
2023-03-05T02:54:28.579Z,607.00
2023-03-05T02:55:28.590Z,609.00
2023-03-05T02:56:28.565Z,609.00
2023-03-05T02:57:28.559Z,611.00
2023-03-05T02:58:28.538Z,614.00
2023-03-05T02:59:28.567Z,613.00
2023-03-05T03:00:28.539Z,613.00
2023-03-05T03:01:28.581Z,614.00
2023-03-05T03:02:28.499Z,613.00
2023-03-05T03:03:28.546Z,612.00
2023-03-05T03:04:28.514Z,613.00
2023-03-05T03:05:28.470Z,616.00
2023-03-05T03:06:28.454Z,617.00
2023-03-05T03:07:28.468Z,618.00
2023-03-05T03:08:28.430Z,617.00
2023-03-05T03:09:28.426Z,617.00
2023-03-05T03:10:28.438Z,615.00
2023-03-05T03:11:28.417Z,612.00
2023-03-05T03:12:28.399Z,614.00
2023-03-05T03:13:28.388Z,614.00
2023-03-05T03:14:28.374Z,613.00
2023-03-05T03:15:28.377Z,616.00
2023-03-05T03:16:28.393Z,615.00
2023-03-05T03:17:28.335Z,614.00
2023-03-05T03:18:28.320Z,612.00
2023-03-05T03:19:28.328Z,611.00
2023-03-05T03:20:28.308Z,613.00
2023-03-05T03:21:28.325Z,617.00
2023-03-05T03:22:28.284Z,620.00
2023-03-05T03:23:28.286Z,623.00
2023-03-05T03:24:28.267Z,622.00
2023-03-05T03:25:28.284Z,617.00
2023-03-05T03:26:28.261Z,618.00
2023-03-05T03:27:28.258Z,616.00
2023-03-05T03:28:28.221Z,616.00
2023-03-05T03:29:28.235Z,613.00
2023-03-05T03:30:28.197Z,614.00
2023-03-05T03:31:28.201Z,616.00
2023-03-05T03:32:28.232Z,616.00
2023-03-05T03:33:28.177Z,616.00
2023-03-05T03:34:28.166Z,618.00
2023-03-05T03:35:28.207Z,618.00
2023-03-05T03:36:28.135Z,616.00
2023-03-05T03:37:28.146Z,614.00
2023-03-05T03:38:28.127Z,615.00
2023-03-05T03:39:28.122Z,615.00
2023-03-05T03:40:28.096Z,614.00
2023-03-05T03:41:28.123Z,613.00
2023-03-05T03:42:28.092Z,613.00
2023-03-05T03:43:28.091Z,611.00
2023-03-05T03:44:28.053Z,611.00
2023-03-05T03:45:28.078Z,608.00
2023-03-05T03:46:28.176Z,608.00
2023-03-05T03:47:28.046Z,608.00
2023-03-05T03:48:28.020Z,609.00
2023-03-05T03:49:28.016Z,610.00
2023-03-05T03:50:28.021Z,611.00
2023-03-05T03:51:27.994Z,612.00
2023-03-05T03:52:27.965Z,613.00
2023-03-05T03:53:27.987Z,611.00
2023-03-05T03:54:27.946Z,611.00
2023-03-05T03:55:27.982Z,610.00
2023-03-05T03:56:27.931Z,609.00
2023-03-05T03:57:27.929Z,608.00
2023-03-05T03:58:27.911Z,606.00
2023-03-05T03:59:27.904Z,606.00
2023-03-05T04:00:27.900Z,607.00
2023-03-05T04:01:27.874Z,609.00
2023-03-05T04:02:27.980Z,610.00
2023-03-05T04:03:27.847Z,613.00
2023-03-05T04:04:27.867Z,609.00
2023-03-05T04:05:27.831Z,611.00
2023-03-05T04:06:27.839Z,611.00
2023-03-05T04:07:27.834Z,613.00
2023-03-05T04:08:27.795Z,611.00
2023-03-05T04:09:27.808Z,610.00
2023-03-05T04:10:27.770Z,612.00
2023-03-05T04:11:27.780Z,614.00
2023-03-05T04:12:27.767Z,615.00
2023-03-05T04:13:27.749Z,613.00
2023-03-05T04:14:27.729Z,614.00
2023-03-05T04:15:27.736Z,613.00
2023-03-05T04:16:27.720Z,613.00
2023-03-05T04:17:27.693Z,614.00
2023-03-05T04:18:27.689Z,613.00
2023-03-05T04:19:27.687Z,612.00
2023-03-05T04:20:27.696Z,613.00
2023-03-05T04:21:27.656Z,615.00
2023-03-05T04:22:27.669Z,618.00
2023-03-05T04:23:27.644Z,613.00
2023-03-05T04:24:27.617Z,612.00
2023-03-05T04:25:27.615Z,612.00
2023-03-05T04:26:27.666Z,610.00
2023-03-05T04:27:27.596Z,610.00
2023-03-05T04:28:27.574Z,609.00
2023-03-05T04:29:27.569Z,607.00
2023-03-05T04:30:27.572Z,609.00
2023-03-05T04:31:27.627Z,607.00
2023-03-05T04:32:27.557Z,606.00
2023-03-05T04:33:27.517Z,606.00
2023-03-05T04:34:27.515Z,605.00
2023-03-05T04:35:27.521Z,607.00
2023-03-05T04:36:27.543Z,606.00
2023-03-05T04:37:27.473Z,605.00
2023-03-05T04:38:27.488Z,607.00
2023-03-05T04:39:27.456Z,609.00
2023-03-05T04:40:27.457Z,611.00
2023-03-05T04:41:27.448Z,611.00
2023-03-05T04:42:27.420Z,609.00
2023-03-05T04:43:27.423Z,609.00
2023-03-05T04:44:27.405Z,611.00
2023-03-05T04:45:27.408Z,611.00
2023-03-05T04:46:27.406Z,611.00
2023-03-05T04:47:27.360Z,612.00
2023-03-05T04:48:27.368Z,613.00
2023-03-05T04:49:27.347Z,614.00
2023-03-05T04:50:27.341Z,610.00
2023-03-05T04:51:27.340Z,610.00
2023-03-05T04:52:27.323Z,612.00
2023-03-05T04:53:27.402Z,612.00
2023-03-05T04:54:27.290Z,613.00
2023-03-05T04:55:27.348Z,614.00
2023-03-05T04:56:27.280Z,612.00
2023-03-05T04:57:27.314Z,611.00
2023-03-05T04:58:27.281Z,613.00
2023-03-05T04:59:27.233Z,615.00
2023-03-05T05:00:27.240Z,617.00
2023-03-05T05:01:27.311Z,616.00
2023-03-05T05:02:27.281Z,618.00
2023-03-05T05:03:27.197Z,615.00
2023-03-05T05:04:27.230Z,613.00
2023-03-05T05:05:27.170Z,616.00
2023-03-05T05:06:27.161Z,613.00
2023-03-05T05:07:27.167Z,612.00
2023-03-05T05:08:27.153Z,613.00
2023-03-05T05:09:27.139Z,614.00
2023-03-05T05:10:27.126Z,613.00
2023-03-05T05:11:27.117Z,613.00
2023-03-05T05:12:27.120Z,611.00
2023-03-05T05:13:27.102Z,608.00
2023-03-05T05:14:27.100Z,609.00
2023-03-05T05:15:27.084Z,608.00
2023-03-05T05:16:27.144Z,610.00
2023-03-05T05:17:27.095Z,610.00
2023-03-05T05:18:27.032Z,610.00
2023-03-05T05:19:27.108Z,609.00
2023-03-05T05:20:27.017Z,608.00
2023-03-05T05:21:27.035Z,607.00
2023-03-05T05:22:27.001Z,607.00
2023-03-05T05:23:26.980Z,608.00
2023-03-05T05:24:26.994Z,611.00
2023-03-05T05:25:26.962Z,611.00
2023-03-05T05:26:26.972Z,606.00
2023-03-05T05:27:26.936Z,608.00
2023-03-05T05:28:26.935Z,609.00
2023-03-05T05:29:26.935Z,609.00
2023-03-05T05:30:26.913Z,608.00
2023-03-05T05:31:26.990Z,611.00
2023-03-05T05:32:26.940Z,607.00
2023-03-05T05:33:26.877Z,607.00
2023-03-05T05:34:26.884Z,606.00
2023-03-05T05:35:26.887Z,608.00
2023-03-05T05:36:26.843Z,604.00
2023-03-05T05:37:26.833Z,606.00
2023-03-05T05:38:26.841Z,606.00
2023-03-05T05:39:26.818Z,603.00
2023-03-05T05:40:26.813Z,605.00
2023-03-05T05:41:26.802Z,606.00
2023-03-05T05:42:26.784Z,604.00
2023-03-05T05:43:26.771Z,605.00
2023-03-05T05:44:26.777Z,609.00
2023-03-05T05:45:26.912Z,609.00
2023-03-05T05:46:26.803Z,607.00
2023-03-05T05:47:26.743Z,606.00
2023-03-05T05:48:26.727Z,605.00
2023-03-05T05:49:26.721Z,606.00
2023-03-05T05:50:26.701Z,603.00
2023-03-05T05:51:26.703Z,607.00
2023-03-05T05:52:26.718Z,607.00
2023-03-05T05:53:26.679Z,608.00
2023-03-05T05:54:26.709Z,611.00
2023-03-05T05:55:26.660Z,609.00
2023-03-05T05:56:26.679Z,608.00
2023-03-05T05:57:26.624Z,608.00
2023-03-05T05:58:26.619Z,606.00
2023-03-05T05:59:26.657Z,604.00
2023-03-05T06:00:26.615Z,602.00
2023-03-05T06:01:26.580Z,600.00
2023-03-05T06:02:26.628Z,598.00
2023-03-05T06:03:26.629Z,595.00
2023-03-05T06:04:26.561Z,595.00
2023-03-05T06:05:26.551Z,597.00
2023-03-05T06:06:26.541Z,599.00
2023-03-05T06:07:26.514Z,601.00
2023-03-05T06:08:26.540Z,600.00
2023-03-05T06:09:26.518Z,601.00
2023-03-05T06:10:26.516Z,599.00
2023-03-05T06:11:26.496Z,601.00
2023-03-05T06:12:26.514Z,601.00
2023-03-05T06:13:26.457Z,601.00
2023-03-05T06:14:26.482Z,603.00
2023-03-05T06:15:26.433Z,603.00
2023-03-05T06:16:26.520Z,604.00
2023-03-05T06:17:30.743Z,603.00
2023-03-05T06:18:26.397Z,602.00
2023-03-05T06:19:26.410Z,605.00
2023-03-05T06:20:26.370Z,606.00
2023-03-05T06:21:26.359Z,608.00
2023-03-05T06:22:26.357Z,608.00
2023-03-05T06:23:26.370Z,608.00
2023-03-05T06:24:26.331Z,605.00
2023-03-05T06:25:26.321Z,607.00
2023-03-05T06:26:26.344Z,605.00
2023-03-05T06:27:26.293Z,605.00
2023-03-05T06:28:26.299Z,606.00
2023-03-05T06:29:26.291Z,609.00
2023-03-05T06:30:26.295Z,610.00
2023-03-05T06:31:26.278Z,609.00
2023-03-05T06:32:26.270Z,606.00
2023-03-05T06:33:26.236Z,604.00
2023-03-05T06:34:26.437Z,605.00
2023-03-05T06:35:26.235Z,604.00
2023-03-05T06:36:26.241Z,606.00
2023-03-05T06:37:26.184Z,603.00
2023-03-05T06:38:26.200Z,603.00
2023-03-05T06:39:26.184Z,602.00
2023-03-05T06:40:26.161Z,602.00
2023-03-05T06:41:26.139Z,605.00
2023-03-05T06:42:26.149Z,606.00
2023-03-05T06:43:26.121Z,605.00
2023-03-05T06:44:26.133Z,603.00
2023-03-05T06:45:26.068Z,602.00
2023-03-05T06:46:26.098Z,604.00
2023-03-05T06:47:26.029Z,606.00
2023-03-05T06:48:26.088Z,606.00
2023-03-05T06:49:26.060Z,609.00
2023-03-05T06:50:26.054Z,609.00
2023-03-05T06:51:25.998Z,606.00
2023-03-05T06:52:25.977Z,604.00
2023-03-05T06:53:26.022Z,601.00
2023-03-05T06:54:26.013Z,598.00
2023-03-05T06:55:26.036Z,600.00
2023-03-05T06:56:25.999Z,603.00
2023-03-05T06:57:25.980Z,603.00
2023-03-05T06:58:25.964Z,600.00
2023-03-05T06:59:25.954Z,598.00
2023-03-05T07:00:25.958Z,596.00
2023-03-05T07:01:25.993Z,601.00
2023-03-05T07:02:26.006Z,598.00
2023-03-05T07:03:25.907Z,600.00
2023-03-05T07:04:25.907Z,600.00
2023-03-05T07:05:25.909Z,601.00
2023-03-05T07:06:25.882Z,600.00
2023-03-05T07:07:25.880Z,600.00
2023-03-05T07:08:25.867Z,598.00
2023-03-05T07:09:25.843Z,598.00
2023-03-05T07:10:25.866Z,599.00
2023-03-05T07:11:25.857Z,601.00
2023-03-05T07:12:25.814Z,601.00
2023-03-05T07:13:25.798Z,604.00
2023-03-05T07:14:25.801Z,603.00
2023-03-05T07:15:25.777Z,602.00
2023-03-05T07:16:25.784Z,601.00
2023-03-05T07:17:25.762Z,602.00
2023-03-05T07:18:25.768Z,597.00
2023-03-05T07:19:25.733Z,598.00
2023-03-05T07:20:25.747Z,601.00
2023-03-05T07:21:25.795Z,600.00
2023-03-05T07:22:25.716Z,599.00
2023-03-05T07:23:25.762Z,599.00
2023-03-05T07:24:25.701Z,599.00
2023-03-05T07:25:25.717Z,600.00
2023-03-05T07:26:25.779Z,599.00
2023-03-05T07:27:25.663Z,599.00
2023-03-05T07:28:25.667Z,601.00
2023-03-05T07:29:25.639Z,601.00
2023-03-05T07:30:25.646Z,601.00
2023-03-05T07:31:25.677Z,599.00
2023-03-05T07:32:25.616Z,596.00
2023-03-05T07:33:25.624Z,599.00
2023-03-05T07:34:27.177Z,602.00
2023-03-05T07:35:25.629Z,599.00
2023-03-05T07:36:25.577Z,600.00
2023-03-05T07:37:25.538Z,600.00
2023-03-05T07:38:25.547Z,602.00
2023-03-05T07:39:25.573Z,605.00
2023-03-05T07:40:25.510Z,603.00
2023-03-05T07:41:25.523Z,606.00
2023-03-05T07:42:25.512Z,605.00
2023-03-05T07:43:25.485Z,606.00
2023-03-05T07:44:25.468Z,606.00
2023-03-05T07:45:25.483Z,604.00
2023-03-05T07:46:25.559Z,602.00
2023-03-05T07:47:25.491Z,598.00
2023-03-05T07:48:25.454Z,599.00
2023-03-05T07:49:25.430Z,601.00
2023-03-05T07:50:25.419Z,601.00
2023-03-05T07:51:25.412Z,597.00
2023-03-05T07:52:25.395Z,600.00
2023-03-05T07:53:25.405Z,601.00
2023-03-05T07:54:25.378Z,600.00
2023-03-05T07:55:25.374Z,600.00
2023-03-05T07:56:25.350Z,599.00
2023-03-05T07:57:25.345Z,601.00
2023-03-05T07:58:25.322Z,601.00
2023-03-05T07:59:25.336Z,604.00
2023-03-05T08:00:25.303Z,603.00
2023-03-05T08:01:25.348Z,602.00
2023-03-05T08:02:25.367Z,607.00
2023-03-05T08:03:25.285Z,609.00
2023-03-05T08:04:25.283Z,610.00
2023-03-05T08:05:25.277Z,609.00
2023-03-05T08:06:25.246Z,608.00
2023-03-05T08:07:25.240Z,604.00
2023-03-05T08:08:25.223Z,604.00
2023-03-05T08:09:25.217Z,603.00
2023-03-05T08:10:25.202Z,604.00
2023-03-05T08:11:25.180Z,603.00
2023-03-05T08:12:25.187Z,601.00
2023-03-05T08:13:25.152Z,601.00
2023-03-05T08:14:25.166Z,599.00
2023-03-05T08:15:25.151Z,601.00
2023-03-05T08:16:25.120Z,601.00
2023-03-05T08:17:25.127Z,602.00
2023-03-05T08:18:25.102Z,602.00
2023-03-05T08:19:25.103Z,603.00
2023-03-05T08:20:25.088Z,603.00
2023-03-05T08:21:25.070Z,606.00
2023-03-05T08:22:25.060Z,605.00
2023-03-05T08:23:24.996Z,606.00
2023-03-05T08:24:25.002Z,606.00
2023-03-05T08:25:25.039Z,606.00
2023-03-05T08:26:24.969Z,608.00
2023-03-05T08:27:25.003Z,607.00
2023-03-05T08:28:24.957Z,606.00
2023-03-05T08:29:24.930Z,604.00
2023-03-05T08:30:24.998Z,605.00
2023-03-05T08:31:24.976Z,605.00
2023-03-05T08:32:24.990Z,603.00
2023-03-05T08:33:24.901Z,603.00
2023-03-05T08:34:24.896Z,604.00
2023-03-05T08:35:24.921Z,601.00
2023-03-05T08:36:24.864Z,601.00
2023-03-05T08:37:24.862Z,604.00
2023-03-05T08:38:24.917Z,604.00
2023-03-05T08:39:24.828Z,605.00
2023-03-05T08:40:24.903Z,605.00
2023-03-05T08:41:24.793Z,608.00
2023-03-05T08:42:24.858Z,609.00
2023-03-05T08:43:24.900Z,608.00
2023-03-05T08:44:24.821Z,607.00
2023-03-05T08:45:24.817Z,607.00
2023-03-05T08:46:24.834Z,606.00
2023-03-05T08:47:24.862Z,605.00
2023-03-05T08:48:24.798Z,604.00
2023-03-05T08:49:24.795Z,603.00
2023-03-05T08:50:24.813Z,604.00
2023-03-05T08:51:24.795Z,602.00
2023-03-05T08:52:24.735Z,603.00
2023-03-05T08:53:24.774Z,602.00
2023-03-05T08:54:24.718Z,604.00
2023-03-05T08:55:24.677Z,606.00
2023-03-05T08:56:24.693Z,607.00
2023-03-05T08:57:24.700Z,606.00
2023-03-05T08:58:24.646Z,604.00
2023-03-05T08:59:24.677Z,602.00
2023-03-05T09:00:24.644Z,600.00
2023-03-05T09:01:24.693Z,598.00
2023-03-05T09:02:24.572Z,597.00
2023-03-05T09:03:24.622Z,595.00
2023-03-05T09:04:24.564Z,595.00
2023-03-05T09:05:24.579Z,595.00
2023-03-05T09:06:24.548Z,596.00
2023-03-05T09:07:24.532Z,596.00
2023-03-05T09:08:24.582Z,599.00
2023-03-05T09:09:24.591Z,600.00
2023-03-05T09:10:24.547Z,603.00
2023-03-05T09:11:24.530Z,604.00
2023-03-05T09:12:24.555Z,603.00
2023-03-05T09:13:24.541Z,604.00
2023-03-05T09:14:24.510Z,602.00
2023-03-05T09:15:24.450Z,601.00
2023-03-05T09:16:24.528Z,601.00
2023-03-05T09:17:24.468Z,602.00
2023-03-05T09:18:24.464Z,602.00
2023-03-05T09:19:24.444Z,601.00
2023-03-05T09:20:24.459Z,599.00
2023-03-05T09:21:24.434Z,596.00
2023-03-05T09:22:24.412Z,597.00
2023-03-05T09:23:24.428Z,597.00
2023-03-05T09:24:24.402Z,597.00
2023-03-05T09:25:24.362Z,595.00
2023-03-05T09:26:24.374Z,596.00
2023-03-05T09:27:24.311Z,598.00
2023-03-05T09:28:24.314Z,597.00
2023-03-05T09:29:24.342Z,598.00
2023-03-05T09:30:24.358Z,595.00
2023-03-05T09:31:24.345Z,597.00
2023-03-05T09:32:24.396Z,596.00
2023-03-05T09:33:24.296Z,593.00
2023-03-05T09:34:24.315Z,597.00
2023-03-05T09:35:24.297Z,596.00
2023-03-05T09:36:24.292Z,596.00
2023-03-05T09:37:24.249Z,597.00
2023-03-05T09:38:24.241Z,598.00
2023-03-05T09:39:24.238Z,597.00
2023-03-05T09:40:24.228Z,596.00
2023-03-05T09:41:24.212Z,595.00
2023-03-05T09:42:24.196Z,596.00
2023-03-05T09:43:24.369Z,597.00
2023-03-05T09:44:24.193Z,596.00
2023-03-05T09:45:24.205Z,597.00
2023-03-05T09:46:24.168Z,600.00
2023-03-05T09:47:24.153Z,601.00
2023-03-05T09:48:24.137Z,602.00
2023-03-05T09:49:24.080Z,603.00
2023-03-05T09:50:24.166Z,600.00
2023-03-05T09:51:24.181Z,599.00
2023-03-05T09:52:24.085Z,599.00
2023-03-05T09:53:24.105Z,599.00
2023-03-05T09:54:24.021Z,600.00
2023-03-05T09:55:24.049Z,601.00
2023-03-05T09:56:24.026Z,601.00
2023-03-05T09:57:23.996Z,601.00
2023-03-05T09:58:24.008Z,599.00
2023-03-05T09:59:23.994Z,595.00
2023-03-05T10:00:24.023Z,595.00
2023-03-05T10:01:23.980Z,597.00
2023-03-05T10:02:23.927Z,599.00
2023-03-05T10:03:23.966Z,599.00
2023-03-05T10:04:23.984Z,601.00
2023-03-05T10:05:23.898Z,601.00
2023-03-05T10:06:23.900Z,604.00
2023-03-05T10:07:23.891Z,604.00
2023-03-05T10:08:23.881Z,601.00
2023-03-05T10:09:23.869Z,603.00
2023-03-05T10:10:23.858Z,602.00
2023-03-05T10:11:23.900Z,603.00
2023-03-05T10:12:23.830Z,603.00
2023-03-05T10:13:23.816Z,603.00
2023-03-05T10:14:23.833Z,606.00
2023-03-05T10:15:23.806Z,605.00
2023-03-05T10:16:23.807Z,604.00
2023-03-05T10:17:23.770Z,605.00
2023-03-05T10:18:23.763Z,606.00
2023-03-05T10:19:23.767Z,606.00
2023-03-05T10:20:23.761Z,608.00
2023-03-05T10:21:23.748Z,608.00
2023-03-05T10:22:23.712Z,607.00
2023-03-05T10:23:23.699Z,608.00
2023-03-05T10:24:23.684Z,610.00
2023-03-05T10:25:23.688Z,609.00
2023-03-05T10:26:23.893Z,612.00
2023-03-05T10:27:23.711Z,614.00
2023-03-05T10:28:23.645Z,612.00
2023-03-05T10:29:23.645Z,614.00
2023-03-05T10:30:23.635Z,617.00
2023-03-05T10:31:23.660Z,618.00
2023-03-05T10:32:23.626Z,619.00
2023-03-05T10:33:23.628Z,619.00
2023-03-05T10:34:23.592Z,620.00
2023-03-05T10:36:50.524Z,640.00
2023-03-05T10:40:07.208Z,623.00
2023-03-05T10:41:08.157Z,635.00
2023-03-05T10:42:08.185Z,640.00
2023-03-05T10:43:08.158Z,642.00
2023-03-05T10:44:08.128Z,642.00
2023-03-05T10:45:08.131Z,647.00
2023-03-05T10:46:08.136Z,649.00
2023-03-05T10:47:08.094Z,647.00
2023-03-05T10:56:54.029Z,688.00
2023-03-05T10:57:54.993Z,691.00
2023-03-05T10:58:54.993Z,691.00
2023-03-05T10:59:54.973Z,694.00
2023-03-05T11:00:55.049Z,698.00
2023-03-05T11:01:55.752Z,701.00
2023-03-05T11:02:55.023Z,706.00
2023-03-05T11:03:54.944Z,713.00
2023-03-05T11:04:54.954Z,716.00
2023-03-05T11:05:54.925Z,741.00
2023-03-05T11:11:46.775Z,732.00
2023-03-05T11:16:51.868Z,739.00
2023-03-05T11:20:06.474Z,751.00
2023-03-05T11:21:20.953Z,749.00
2023-03-05T11:25:37.126Z,772.00
2023-03-05T11:26:38.092Z,776.00
2023-03-05T11:27:38.081Z,778.00
2023-03-05T11:31:06.152Z,781.00
2023-03-05T11:40:14.802Z,824.00
2023-03-05T11:41:15.765Z,829.00
2023-03-05T11:44:37.300Z,867.00
2023-03-05T11:45:38.334Z,872.00
2023-03-05T11:46:38.365Z,884.00
2023-03-05T11:47:38.284Z,890.00
2023-03-05T11:48:38.249Z,892.00
2023-03-05T11:49:38.240Z,896.00
2023-03-05T12:04:42.026Z,992.00
2023-03-05T12:05:42.980Z,997.00
2023-03-05T12:08:18.449Z,1033.00
2023-03-05T12:11:31.801Z,1045.00
2023-03-05T12:12:32.752Z,1043.00
2023-03-05T12:13:32.768Z,1046.00
2023-03-05T12:14:32.742Z,1045.00
2023-03-05T12:15:32.756Z,1046.00
2023-03-05T12:17:50.357Z,1034.00
2023-03-05T12:18:51.330Z,1058.00
2023-03-05T12:19:51.342Z,1069.00
2023-03-05T12:20:51.352Z,1078.00
2023-03-05T12:21:51.318Z,1085.00
2023-03-05T12:22:51.286Z,1096.00
2023-03-05T12:23:51.272Z,1128.00
2023-03-05T12:24:51.258Z,1134.00
2023-03-05T12:25:51.267Z,1129.00
2023-03-05T12:26:51.252Z,1129.00
2023-03-05T12:27:51.246Z,1134.00
2023-03-05T12:28:51.309Z,1141.00
2023-03-05T12:29:51.229Z,1147.00
2023-03-05T12:30:51.225Z,1151.00
2023-03-05T12:31:51.248Z,1166.00
2023-03-05T12:32:51.177Z,1177.00
2023-03-05T12:33:51.185Z,1188.00
2023-03-05T12:34:51.183Z,1197.00
2023-03-05T12:35:51.213Z,1203.00
2023-03-05T12:36:51.139Z,1213.00
2023-03-05T12:37:51.182Z,1216.00
2023-03-05T12:38:51.129Z,1224.00
2023-03-05T12:39:51.119Z,1244.00
2023-03-05T12:40:51.128Z,1259.00
2023-03-05T12:41:51.094Z,1264.00
2023-03-05T12:42:51.060Z,1264.00
2023-03-05T12:43:51.081Z,1279.00
2023-03-05T12:44:51.061Z,1291.00
2023-03-05T12:45:51.088Z,1298.00
2023-03-05T12:46:51.160Z,1299.00
2023-03-05T12:47:51.028Z,1303.00
2023-03-05T12:48:51.083Z,1308.00
2023-03-05T12:49:50.996Z,1318.00
2023-03-05T12:50:50.985Z,1328.00
2023-03-05T12:51:51.039Z,1332.00
2023-03-05T12:52:50.969Z,1340.00
2023-03-05T12:53:50.963Z,1344.00
2023-03-05T12:54:50.936Z,1346.00
2023-03-05T12:55:50.951Z,1349.00
2023-03-05T12:56:50.924Z,1350.00
2023-03-05T12:57:50.927Z,1357.00
2023-03-05T12:58:50.915Z,1372.00
2023-03-05T12:59:50.896Z,1384.00
2023-03-05T13:00:50.928Z,1394.00
2023-03-05T13:01:50.881Z,1396.00
2023-03-05T13:02:50.853Z,1399.00
2023-03-05T13:03:50.865Z,1405.00
2023-03-05T13:04:50.823Z,1416.00
2023-03-05T13:05:50.869Z,1423.00
2023-03-05T13:06:50.795Z,1427.00
2023-03-05T13:07:50.805Z,1429.00
2023-03-05T13:08:50.809Z,1429.00
2023-03-05T13:09:50.785Z,1434.00
2023-03-05T13:10:50.755Z,1440.00
2023-03-05T13:11:50.805Z,1448.00
2023-03-05T13:12:50.746Z,1462.00
2023-03-05T13:13:50.750Z,1471.00
2023-03-05T13:14:50.729Z,1476.00
2023-03-05T13:15:50.698Z,1484.00
2023-03-05T13:16:50.695Z,1488.00
2023-03-05T13:17:50.677Z,1508.00
2023-03-05T13:18:50.670Z,1519.00
2023-03-05T13:19:50.663Z,1524.00
2023-03-05T13:20:50.641Z,1533.00
2023-03-05T13:21:50.639Z,1541.00
2023-03-05T13:22:50.619Z,1545.00
2023-03-05T13:23:50.635Z,1542.00
2023-03-05T13:24:50.595Z,1545.00
2023-03-05T13:25:50.603Z,1552.00